Pagina principale
METAR-TAF:

METAR-TAF

Aeroporti :

Lecce, Italia

Aeroporto di Lecce-San Cataldo

latitudine: 40-14N, longitudine: 018-09E, altezza: 48 m

Osservazione

Il bollettino è stato emesso 44 minuti fa, alle 12:55 UTC
Vento 12 kt da ovest/sud-ovest
Temperature 26°C
Umidità 42%
Pressione 1011 hPa
Visibilità 10 km o più
Poco nuvoloso ad un'altezza di 2500 ft

METAR: LIBN 191255Z 25012KT 9999 FEW025 26/12 Q1011 RMK SCT SCT100 VIS MIN 9999 WIND THR14 23010KT WIND THR32 24011KT BLU

Ora: 15:39 (13:39 UTC)

Previsione

Il bollettino è stato emesso 2 ore e 39 minuti fa, alle 11:00 UTC
Previsione valida dal 19 alle 12 UTC al 19 alle 21 UTC
Vento 12 kt da sud-ovest
Visibilità 10 km o più
Poco nuvoloso ad un'altezza di 2500 ft
Temporaneamente
dal 19 alle 12 UTC al 19 alle 16 UTC
Nubi sparse ad un'altezza di 2500 ft

TAF: LIBN 191100Z 1912/1921 22012KT 9999 FEW025 TEMPO 1912/1916 SCT025

Osservazioni e previsioni meteorologiche di più di 4000 aeroporti (messaggi METAR e TAF).

Le stazioni disponibili sono rappresentate dai dischi gialli e rossi sulla carta.

Puntare il mouse per vedere il nome della stazione.

Clicca sopra per visualizzare le osservazioni e previsioni meteorologiche.

Per cambiare la mappa : fare clic sui pulsanti verdi con una croce nera per ingrandire, il pulsante verde con un trattino per diminuire, o sulla freccia verde per le mappe adiacenti.


METAR-TAF: